Time,TemperatureF,DewpointF,PressureIn,WindDirection,WindDirectionDegrees,WindSpeedMPH,WindSpeedGustMPH,Humidity,HourlyPrecipIn,Conditions,Clouds,dailyrainin,SoftwareType,DateUTC
2013-12-03 00:14:00,40.6,18.2,29.23,South,175,0.0,0.0,40,0.00,,,0.00,VWS V14.01,2013-12-03 05:14:00,
2013-12-03 00:29:00,40.8,18.4,29.23,South,175,0.0,0.0,40,0.00,,,0.00,VWS V14.01,2013-12-03 05:29:00,
2013-12-03 00:44:00,40.8,19.0,29.23,South,175,0.0,0.0,41,0.00,,,0.00,VWS V14.01,2013-12-03 05:44:00,
2013-12-03 00:59:00,40.8,19.0,29.23,South,175,0.0,0.0,41,0.00,,,0.00,VWS V14.01,2013-12-03 05:59:00,
2013-12-03 01:14:00,40.6,18.8,29.23,South,175,0.0,0.0,41,0.00,,,0.00,VWS V14.01,2013-12-03 06:14:00,
2013-12-03 01:29:00,40.8,19.5,29.23,South,175,0.0,0.0,42,0.00,,,0.00,VWS V14.01,2013-12-03 06:29:00,
2013-12-03 01:44:00,40.8,19.5,29.23,South,175,0.0,0.0,42,0.00,,,0.00,VWS V14.01,2013-12-03 06:44:00,
2013-12-03 01:59:00,40.6,19.4,29.23,South,175,0.0,0.0,42,0.00,,,0.00,VWS V14.01,2013-12-03 06:59:00,
2013-12-03 02:14:00,40.5,19.2,29.23,South,175,0.0,0.0,42,0.00,,,0.00,VWS V14.01,2013-12-03 07:14:00,
2013-12-03 02:29:00,40.1,19.4,29.23,South,175,0.0,0.0,43,0.00,,,0.00,VWS V14.01,2013-12-03 07:29:00,
2013-12-03 02:44:00,39.7,19.1,29.23,South,175,0.0,0.0,43,0.00,,,0.00,VWS V14.01,2013-12-03 07:44:00,
2013-12-03 02:59:00,39.7,19.1,29.23,South,175,0.0,0.0,43,0.00,,,0.00,VWS V14.01,2013-12-03 07:59:00,
2013-12-03 03:14:00,39.6,18.9,29.26,South,175,0.0,0.0,43,0.00,,,0.00,VWS V14.01,2013-12-03 08:14:00,
2013-12-03 03:29:00,39.2,18.6,29.23,South,175,0.0,0.0,43,0.00,,,0.00,VWS V14.01,2013-12-03 08:29:00,
2013-12-03 03:44:00,38.7,18.6,29.23,South,175,0.0,0.0,44,0.00,,,0.00,VWS V14.01,2013-12-03 08:44:00,
2013-12-03 03:59:00,38.1,18.1,29.23,South,175,0.0,0.0,44,0.00,,,0.00,VWS V14.01,2013-12-03 08:59:00,
2013-12-03 04:14:00,37.8,18.3,29.26,South,175,0.0,0.0,45,0.00,,,0.00,VWS V14.01,2013-12-03 09:14:00,
2013-12-03 04:29:00,37.6,18.2,29.26,South,175,0.0,0.0,45,0.00,,,0.00,VWS V14.01,2013-12-03 09:29:00,
2013-12-03 04:44:00,38.1,19.2,29.26,South,175,0.0,0.0,46,0.00,,,0.00,VWS V14.01,2013-12-03 09:44:00,
2013-12-03 04:59:00,38.7,20.2,29.26,South,175,0.0,0.0,47,0.00,,,0.00,VWS V14.01,2013-12-03 09:59:00,
2013-12-03 05:14:00,39.0,21.0,29.26,South,175,0.0,0.0,48,0.00,,,0.00,VWS V14.01,2013-12-03 10:14:00,
2013-12-03 05:29:00,39.2,21.2,29.26,South,175,0.0,0.0,48,0.00,,,0.00,VWS V14.01,2013-12-03 10:29:00,
2013-12-03 05:44:00,39.2,21.2,29.29,South,175,0.0,0.0,48,0.00,,,0.00,VWS V14.01,2013-12-03 10:44:00,
2013-12-03 05:59:00,39.2,21.7,29.29,South,175,0.0,0.0,49,0.00,,,0.00,VWS V14.01,2013-12-03 10:59:00,
2013-12-03 06:14:00,39.4,21.8,29.26,South,175,0.0,0.0,49,0.00,,,0.00,VWS V14.01,2013-12-03 11:14:00,
2013-12-03 06:29:00,39.6,22.0,29.26,South,175,0.0,0.0,49,0.00,,,0.00,VWS V14.01,2013-12-03 11:29:00,
2013-12-03 06:44:00,39.7,22.6,29.29,South,175,0.0,0.0,50,0.00,,,0.00,VWS V14.01,2013-12-03 11:44:00,
2013-12-03 06:59:00,39.7,22.6,29.29,South,175,0.0,0.0,50,0.00,,,0.00,VWS V14.01,2013-12-03 11:59:00,
2013-12-03 07:14:00,39.9,22.8,29.29,South,175,0.0,0.0,50,0.00,,,0.00,VWS V14.01,2013-12-03 12:14:00,
2013-12-03 07:29:00,39.9,23.3,29.29,South,175,0.0,0.0,51,0.00,,,0.00,VWS V14.01,2013-12-03 12:29:00,
2013-12-03 07:44:00,40.1,23.0,29.29,South,175,0.0,0.0,50,0.00,,,0.00,VWS V14.01,2013-12-03 12:44:00,
2013-12-03 07:59:00,40.3,23.6,29.29,South,175,0.0,0.0,51,0.00,,,0.00,VWS V14.01,2013-12-03 12:59:00,
2013-12-03 08:14:00,40.5,23.8,29.29,South,175,0.0,0.0,51,0.00,,,0.00,VWS V14.01,2013-12-03 13:14:00,
2013-12-03 08:29:00,40.6,23.9,29.29,South,175,0.0,0.0,51,0.00,,,0.00,VWS V14.01,2013-12-03 13:29:00,
2013-12-03 08:44:00,41.2,24.4,29.29,South,175,0.0,0.0,51,0.00,,,0.00,VWS V14.01,2013-12-03 13:44:00,
2013-12-03 08:59:00,41.7,24.5,29.29,South,175,0.0,0.0,50,0.00,,,0.00,VWS V14.01,2013-12-03 13:59:00,
2013-12-03 09:14:00,42.3,24.5,29.29,South,175,0.0,0.0,49,0.00,,,0.00,VWS V14.01,2013-12-03 14:14:00,
2013-12-03 09:29:00,42.6,24.3,29.32,South,175,0.0,0.0,48,0.00,,,0.00,VWS V14.01,2013-12-03 14:29:00,
2013-12-03 09:44:00,43.2,23.8,29.32,South,175,0.0,0.0,46,0.00,,,0.00,VWS V14.01,2013-12-03 14:44:00,
2013-12-03 09:59:00,43.7,23.2,29.32,South,175,0.0,0.0,44,0.00,,,0.00,VWS V14.01,2013-12-03 14:59:00,
2013-12-03 10:14:00,44.6,22.9,29.32,South,175,0.0,0.0,42,0.00,,,0.00,VWS V14.01,2013-12-03 15:14:00,
2013-12-03 10:29:00,45.9,23.5,29.32,South,175,0.0,0.0,41,0.00,,,0.00,VWS V14.01,2013-12-03 15:29:00,
2013-12-03 10:44:00,46.9,23.9,29.32,South,175,0.0,0.0,40,0.00,,,0.00,VWS V14.01,2013-12-03 15:44:00,
2013-12-03 10:59:00,48.7,23.6,29.32,South,175,0.0,0.0,37,0.00,,,0.00,VWS V14.01,2013-12-03 15:59:00,
2013-12-03 11:14:00,49.8,20.4,29.29,SSE,160,0.0,0.0,31,0.00,,,0.00,VWS V14.01,2013-12-03 16:14:00,
2013-12-03 11:29:00,51.1,20.0,29.29,SSE,160,0.0,0.0,29,0.00,,,0.00,VWS V14.01,2013-12-03 16:29:00,
2013-12-03 11:44:00,51.3,18.4,29.29,SSE,160,0.0,0.0,27,0.00,,,0.00,VWS V14.01,2013-12-03 16:44:00,
2013-12-03 11:59:00,51.3,18.4,29.29,SSE,160,0.0,0.0,27,0.00,,,0.00,VWS V14.01,2013-12-03 16:59:00,
2013-12-03 12:14:00,52.3,18.5,29.26,SSE,160,0.0,0.0,26,0.00,,,0.00,VWS V14.01,2013-12-03 17:14:00,
2013-12-03 12:29:00,52.5,18.6,29.26,SSE,160,0.0,0.0,26,0.00,,,0.00,VWS V14.01,2013-12-03 17:29:00,
2013-12-03 12:44:00,54.3,20.2,29.26,SSE,160,0.0,0.0,26,0.00,,,0.00,VWS V14.01,2013-12-03 17:44:00,
2013-12-03 12:59:00,56.5,21.1,29.29,SSE,160,0.0,0.0,25,0.00,,,0.00,VWS V14.01,2013-12-03 17:59:00,
2013-12-03 13:14:00,56.8,18.4,29.29,SSE,160,0.0,0.0,22,0.00,,,0.00,VWS V14.01,2013-12-03 18:14:00,
2013-12-03 13:29:00,58.1,19.5,29.26,SSE,160,0.0,0.0,22,0.00,,,0.00,VWS V14.01,2013-12-03 18:29:00,
2013-12-03 13:44:00,58.3,19.6,29.26,SSE,160,0.0,0.0,22,0.00,,,0.00,VWS V14.01,2013-12-03 18:44:00,
2013-12-03 13:59:00,58.3,19.6,29.26,SSE,160,0.0,0.0,22,0.00,,,0.00,VWS V14.01,2013-12-03 18:59:00,
2013-12-03 14:14:00,59.2,20.4,29.26,SSE,160,0.0,0.0,22,0.00,,,0.00,VWS V14.01,2013-12-03 19:14:00,
2013-12-03 14:29:00,58.8,16.7,29.26,SSE,160,0.0,0.0,19,0.00,,,0.00,VWS V14.01,2013-12-03 19:29:00,
2013-12-03 14:44:00,58.8,16.7,29.26,SSE,160,0.0,0.0,19,0.00,,,0.00,VWS V14.01,2013-12-03 19:44:00,
2013-12-03 14:59:00,59.2,17.0,29.26,SSE,160,0.0,0.0,19,0.00,,,0.00,VWS V14.01,2013-12-03 19:59:00,
2013-12-03 15:14:00,58.5,16.4,29.26,SSE,160,0.0,0.0,19,0.00,,,0.00,VWS V14.01,2013-12-03 20:14:00,
2013-12-03 15:29:00,58.1,16.1,29.26,SSE,160,0.0,0.0,19,0.00,,,0.00,VWS V14.01,2013-12-03 20:29:00,
2013-12-03 15:44:00,57.6,15.6,29.26,SSE,160,0.0,0.0,19,0.00,,,0.00,VWS V14.01,2013-12-03 20:44:00,
2013-12-03 15:59:00,56.8,16.2,29.26,SSE,160,0.0,0.0,20,0.00,,,0.00,VWS V14.01,2013-12-03 20:59:00,
2013-12-03 16:14:00,55.6,17.4,29.26,SSE,160,0.0,0.0,22,0.00,,,0.00,VWS V14.01,2013-12-03 21:14:00,
2013-12-03 16:29:00,54.1,17.2,29.26,SE,146,0.0,0.0,23,0.00,,,0.00,VWS V14.01,2013-12-03 21:29:00,
2013-12-03 16:44:00,53.2,16.4,29.26,SE,146,0.0,0.0,23,0.00,,,0.00,VWS V14.01,2013-12-03 21:44:00,
2013-12-03 16:59:00,52.3,15.7,29.26,SE,146,0.0,0.0,23,0.00,,,0.00,VWS V14.01,2013-12-03 21:59:00,
2013-12-03 17:14:00,50.9,15.4,29.26,SE,146,0.0,0.0,24,0.00,,,0.00,VWS V14.01,2013-12-03 22:14:00,
2013-12-03 17:29:00,50.0,16.5,29.26,SE,146,0.0,0.0,26,0.00,,,0.00,VWS V14.01,2013-12-03 22:29:00,
2013-12-03 17:44:00,49.6,17.0,29.26,SE,146,0.0,0.0,27,0.00,,,0.00,VWS V14.01,2013-12-03 22:44:00,
2013-12-03 17:59:00,48.9,16.4,29.26,SE,146,0.0,0.0,27,0.00,,,0.00,VWS V14.01,2013-12-03 22:59:00,
2013-12-03 18:14:00,48.7,16.3,29.26,SSE,147,0.0,0.0,27,0.00,,,0.00,VWS V14.01,2013-12-03 23:14:00,
2013-12-03 18:29:00,48.2,16.6,29.26,SSE,147,0.0,0.0,28,0.00,,,0.00,VWS V14.01,2013-12-03 23:29:00,
2013-12-03 18:44:00,47.7,17.0,29.26,SSE,147,0.0,0.0,29,0.00,,,0.00,VWS V14.01,2013-12-03 23:44:00,
2013-12-03 18:59:00,47.5,17.6,29.26,SSE,147,0.0,0.0,30,0.00,,,0.00,VWS V14.01,2013-12-03 23:59:00,
2013-12-03 19:14:00,47.3,17.5,29.26,SSE,147,0.0,0.0,30,0.00,,,0.00,VWS V14.01,2013-12-04 00:14:00,
2013-12-03 19:29:00,47.3,18.2,29.26,SSE,147,0.0,0.0,31,0.00,,,0.00,VWS V14.01,2013-12-04 00:29:00,
2013-12-03 19:44:00,47.3,19.7,29.26,SSE,151,0.0,0.0,33,0.00,,,0.00,VWS V14.01,2013-12-04 00:44:00,
2013-12-03 19:59:00,47.3,19.7,29.26,West,259,0.0,0.0,33,0.00,,,0.00,VWS V14.01,2013-12-04 00:59:00,
2013-12-03 20:14:00,46.9,20.0,29.26,West,259,0.0,0.0,34,0.00,,,0.00,VWS V14.01,2013-12-04 01:14:00,
2013-12-03 20:29:00,46.6,19.7,29.26,West,259,0.0,0.0,34,0.00,,,0.00,VWS V14.01,2013-12-04 01:29:00,
2013-12-03 20:44:00,46.2,20.1,29.26,West,259,0.0,0.0,35,0.00,,,0.00,VWS V14.01,2013-12-04 01:44:00,
2013-12-03 20:59:00,45.5,20.1,29.26,West,259,0.0,0.0,36,0.00,,,0.00,VWS V14.01,2013-12-04 01:59:00,
2013-12-03 21:14:00,44.6,19.3,29.26,West,259,0.0,0.0,36,0.00,,,0.00,VWS V14.01,2013-12-04 02:14:00,
2013-12-03 21:29:00,44.2,20.3,29.26,West,259,0.0,0.0,38,0.00,,,0.00,VWS V14.01,2013-12-04 02:29:00,
2013-12-03 21:44:00,44.4,20.4,29.29,West,259,0.0,0.0,38,0.00,,,0.00,VWS V14.01,2013-12-04 02:44:00,
2013-12-03 21:59:00,44.2,20.9,29.29,West,259,0.0,0.0,39,0.00,,,0.00,VWS V14.01,2013-12-04 02:59:00,
2013-12-03 22:14:00,44.8,21.4,29.29,West,259,0.0,0.0,39,0.00,,,0.00,VWS V14.01,2013-12-04 03:14:00,
2013-12-03 22:29:00,44.8,21.4,29.29,West,259,0.0,0.0,39,0.00,,,0.00,VWS V14.01,2013-12-04 03:29:00,
2013-12-03 22:44:00,44.4,21.6,29.29,West,259,0.0,0.0,40,0.00,,,0.00,VWS V14.01,2013-12-04 03:44:00,
2013-12-03 22:59:00,44.6,21.8,29.29,West,259,0.0,0.0,40,0.00,,,0.00,VWS V14.01,2013-12-04 03:59:00,
2013-12-03 23:14:00,44.8,22.0,29.29,West,259,0.0,0.0,40,0.00,,,0.00,VWS V14.01,2013-12-04 04:14:00,
2013-12-03 23:29:00,44.6,21.8,29.29,West,259,0.0,0.0,40,0.00,,,0.00,VWS V14.01,2013-12-04 04:29:00,
2013-12-03 23:44:00,44.4,22.2,29.29,West,259,0.0,0.0,41,0.00,,,0.00,VWS V14.01,2013-12-04 04:44:00,
2013-12-03 23:59:00,44.2,22.0,29.29,West,259,0.0,0.0,41,0.00,,,0.00,VWS V14.01,2013-12-04 04:59:00,